Lochloosa, Florida
Current Conditions -  °F | °C
As of 10:53 AM on Thursday 29 Jan 2015 (Local Time) from KGNV Reporting Station
Clear Clear  
Wind Chill: 58°   Ceiling: Unl
Heat Index: 58°   Visibility: 10mi
Dew Point: 43°   Wind: 0mph
Humidity: 58%   Direction: NA
Pressure: 30.36"   Gusts: NA
Location:  29.51°N, 82.1°W
Report Text: KGNV 291553Z 00000KT 10SM CLR 14/06 A3036 RMK AO2 SLP283 T01440061
Loading
Personal Weather Stations






























Interactive Weather Map New forecast layout! Learn more

10-Day Weather Forecast

Advertisements
Track Severe Weather on mobile